Terminal Aerodrome Forecast
Issued by NWS

Home | Current Version | Previous Version | Text Only | Print | Product List | Glossary Off
Versions: 1 2 3 4 5 6 7 8 9 10 11 12 13 14 15 16 17 18

000
FTUS43 KMPX 270305 AAA
TAFAXN
TAF AMD
KAXN 270305Z 2703/2724 33008KT 6SM BR OVC008
     FM271200 13003KT P6SM OVC010
     FM271900 16009KT P6SM SCT015 BKN200=

USA.gov is the U.S. government's official web portal to all federal, state and local government web resources and services.